Hauptseite
METAR-TAF:

METAR-TAF

Flughäfen :

Militärflugplatz Cervia

Cervia, Italien

Breite: 44-13N, Länge: 012-18E, Höhe: 6 m

Beobachtung

Neuester Wetterbericht von vor 28 Minuten, um 01:55 UTC
Wind 3 kt aus West/Südwest
Temperatur 9°C
Luftfeuchtigkeit 87%
Luftdruck 1015 hPa
Sichtweite 10 km oder mehr
keine Wolken unter 1500 m und keine Kumulonimbus oder Gewitterwolken

METAR: LIPC 250155Z 24003KT CAVOK 09/07 Q1015 RMK SKC VIS MIN 9999 WIND THR11 /////KT WIND THR29 25003KT BLU

Zeit: 03:23 (02:23 UTC)

Prognose

Neuester Wetterbericht von vor 3 Stunden und 23 Minuten, um 23:00 UTC
Gültige Prognose vom 25 um 00 UTC bis 25 um 09 UTC
Wind 3 kt aus Süd/Südwest
Sichtweite 10 km oder mehr
keine Wolken unter 1500 m und keine Kumulonimbus oder Gewitterwolken

TAF: LIPC 242300Z 2500/2509 21003KT CAVOK

Wetterbeobachtungen und Prognosen von mehr als 4000 Flughäfen (METAR und TAF Bericht).

Die verfügbaren Stationen werden durch gelbe und rote Markierungen auf der Karte dargestellt.

Führen Sie die Maus auf sie, um den Namen der Station zu sehen.

Darauf klicken, um die Beobachtung von Wetterbeobachtungen und Prognosen zu sehen.

Um die Karte zu ändern : klicken Sie auf den grünen Tasten mit einem schwarzen Kreuz Zum Vergrößern, auf den grünen Button mit einem Gedankenstrich zu verkleinern, oder auf die grünen Pfeile für benachbarte Karten.


METAR-TAF: